createdAt,value
2019-03-15T00:00:57.213Z,91.70
2019-03-15T00:03:25.060Z,91.70
2019-03-15T00:05:53.190Z,91.90
2019-03-15T00:08:22.057Z,91.90
2019-03-15T00:10:50.181Z,92.10
2019-03-15T00:13:18.155Z,92.00
2019-03-15T00:15:46.227Z,92.20
2019-03-15T00:18:15.044Z,92.20
2019-03-15T00:20:42.883Z,92.40
2019-03-15T00:23:10.917Z,92.30
2019-03-15T00:25:38.776Z,92.20
2019-03-15T00:28:06.605Z,92.20
2019-03-15T00:30:34.526Z,92.30
2019-03-15T00:33:03.446Z,92.40
2019-03-15T00:35:31.387Z,92.40
2019-03-15T00:37:59.355Z,92.60
2019-03-15T00:40:27.270Z,92.80
2019-03-15T00:42:55.286Z,92.70
2019-03-15T00:45:23.172Z,93.20
2019-03-15T00:47:51.336Z,92.90
2019-03-15T00:50:20.396Z,93.00
2019-03-15T00:52:48.239Z,93.10
2019-03-15T00:55:16.094Z,93.10
2019-03-15T00:57:45.087Z,93.10
2019-03-15T01:00:14.332Z,93.10
2019-03-15T01:02:44.198Z,93.00
2019-03-15T01:05:12.015Z,92.90
2019-03-15T01:07:41.493Z,93.00
2019-03-15T01:10:10.245Z,93.20
2019-03-15T01:12:38.235Z,93.30
2019-03-15T01:15:06.760Z,93.30
2019-03-15T01:17:34.716Z,93.40
2019-03-15T01:20:02.916Z,93.50
2019-03-15T01:22:31.052Z,93.60
2019-03-15T01:24:58.931Z,93.70
2019-03-15T01:27:26.771Z,93.70
2019-03-15T01:29:54.738Z,93.60
2019-03-15T01:32:22.585Z,93.50
2019-03-15T01:34:50.504Z,93.40
2019-03-15T01:37:18.469Z,93.40
2019-03-15T01:39:49.199Z,93.40
2019-03-15T01:42:17.157Z,93.40
2019-03-15T01:44:45.177Z,93.20
2019-03-15T01:47:13.109Z,93.20
2019-03-15T01:49:44.354Z,92.80
2019-03-15T01:52:10.760Z,92.70
2019-03-15T01:54:38.760Z,92.60
2019-03-15T01:57:06.670Z,92.40
2019-03-15T01:59:34.672Z,92.40
2019-03-15T02:02:02.783Z,92.20
2019-03-15T02:04:31.793Z,92.10
2019-03-15T02:07:00.204Z,92.20
2019-03-15T02:09:28.218Z,92.10
2019-03-15T02:11:56.210Z,92.00
2019-03-15T02:14:24.062Z,92.00
2019-03-15T02:16:51.978Z,92.00
2019-03-15T02:19:19.817Z,91.90
2019-03-15T02:21:47.696Z,92.10
2019-03-15T02:24:17.328Z,91.90
2019-03-15T02:26:45.369Z,91.90
2019-03-15T02:29:13.377Z,91.80
2019-03-15T02:31:41.400Z,91.80
2019-03-15T02:34:09.242Z,91.80
2019-03-15T02:36:37.240Z,91.90
2019-03-15T02:39:05.919Z,91.80
2019-03-15T02:41:33.823Z,91.90
2019-03-15T02:44:01.828Z,91.90
2019-03-15T02:46:29.979Z,92.00
2019-03-15T02:48:58.126Z,92.10
2019-03-15T02:51:26.140Z,92.00
2019-03-15T02:53:56.044Z,92.10
2019-03-15T02:56:24.938Z,92.00
2019-03-15T02:58:54.031Z,92.10
2019-03-15T03:01:23.228Z,92.20
2019-03-15T03:03:51.287Z,92.20
2019-03-15T03:06:19.304Z,92.30
2019-03-15T03:08:47.187Z,92.30
2019-03-15T03:11:15.299Z,92.30
2019-03-15T03:13:43.194Z,92.40
2019-03-15T03:16:11.251Z,92.30
2019-03-15T03:18:39.297Z,92.20
2019-03-15T03:21:07.320Z,92.30
2019-03-15T03:23:35.422Z,92.30
2019-03-15T03:26:03.536Z,92.40
2019-03-15T03:28:31.579Z,92.40
2019-03-15T03:30:59.680Z,92.40
2019-03-15T03:33:30.381Z,92.30
2019-03-15T03:35:59.282Z,92.40
2019-03-15T03:38:27.103Z,92.30
2019-03-15T03:40:56.282Z,92.30
2019-03-15T03:43:24.716Z,92.30
2019-03-15T03:45:52.604Z,92.30
2019-03-15T03:48:20.614Z,92.20
2019-03-15T03:50:49.221Z,92.30
2019-03-15T03:53:17.142Z,92.30
2019-03-15T03:55:44.981Z,92.30
2019-03-15T03:58:12.922Z,92.60
2019-03-15T04:00:40.955Z,92.30
2019-03-15T04:03:08.936Z,92.30
2019-03-15T04:05:36.866Z,92.30
2019-03-15T04:08:04.848Z,92.30
2019-03-15T04:10:32.655Z,92.40
2019-03-15T04:13:00.667Z,92.40
2019-03-15T04:15:29.483Z,92.50
2019-03-15T04:17:57.352Z,92.50
2019-03-15T04:20:26.282Z,92.40
2019-03-15T04:22:55.413Z,92.40
2019-03-15T04:25:23.448Z,92.40
2019-03-15T04:27:51.279Z,92.40
2019-03-15T04:30:19.131Z,92.30
2019-03-15T04:32:47.159Z,92.20
2019-03-15T04:35:16.122Z,92.20
2019-03-15T04:37:44.097Z,92.10
2019-03-15T04:40:12.037Z,92.00
2019-03-15T04:42:40.078Z,92.00
2019-03-15T04:45:08.111Z,91.90
2019-03-15T04:47:36.973Z,91.90
2019-03-15T04:50:08.759Z,91.70
2019-03-15T04:52:37.790Z,91.80
2019-03-15T04:55:05.837Z,91.80
2019-03-15T04:57:33.802Z,91.70
2019-03-15T05:00:01.634Z,91.60
2019-03-15T05:02:29.579Z,91.60
2019-03-15T05:05:00.185Z,91.40
2019-03-15T05:07:27.214Z,91.40
2019-03-15T05:09:55.172Z,91.30
2019-03-15T05:12:23.402Z,91.20
2019-03-15T05:14:51.227Z,91.10
2019-03-15T05:17:19.071Z,90.90
2019-03-15T05:19:47.069Z,90.90
2019-03-15T05:22:15.081Z,90.80
2019-03-15T05:24:43.103Z,90.90
2019-03-15T05:27:11.100Z,90.90
2019-03-15T05:29:39.174Z,90.90
2019-03-15T05:32:07.240Z,90.90
2019-03-15T05:34:35.124Z,91.00
2019-03-15T05:37:03.020Z,91.10
2019-03-15T05:39:32.760Z,91.00
2019-03-15T05:42:01.146Z,90.90
2019-03-15T05:44:29.244Z,90.90
2019-03-15T05:46:57.187Z,90.80
2019-03-15T05:49:25.113Z,90.70
2019-03-15T05:51:53.008Z,90.80
2019-03-15T05:54:20.879Z,90.60
2019-03-15T05:56:48.718Z,90.40
2019-03-15T05:59:16.624Z,90.40
2019-03-15T06:01:44.683Z,90.20
2019-03-15T06:04:12.624Z,90.30
2019-03-15T06:06:40.686Z,90.30
2019-03-15T06:09:08.629Z,90.40
2019-03-15T06:11:36.828Z,90.00
2019-03-15T06:14:05.477Z,89.40
2019-03-15T06:16:33.452Z,89.50
2019-03-15T06:19:01.388Z,89.50
2019-03-15T06:21:29.272Z,89.30
2019-03-15T06:23:57.187Z,89.50
2019-03-15T06:26:25.218Z,89.30
2019-03-15T06:28:53.322Z,89.30
2019-03-15T06:31:21.278Z,89.00
2019-03-15T06:33:49.198Z,88.80
2019-03-15T06:36:17.074Z,88.70
2019-03-15T06:38:45.124Z,88.60
2019-03-15T06:41:14.433Z,88.80
2019-03-15T06:43:42.672Z,88.30
2019-03-15T06:46:10.625Z,87.80
2019-03-15T06:48:38.839Z,87.60
2019-03-15T06:51:09.207Z,87.50
2019-03-15T06:53:36.795Z,87.50
2019-03-15T06:56:05.036Z,86.90
2019-03-15T06:58:33.155Z,87.10
2019-03-15T07:01:01.272Z,86.90
2019-03-15T07:03:29.616Z,86.50
2019-03-15T07:05:57.588Z,86.10
2019-03-15T07:08:25.624Z,86.50
2019-03-15T07:10:54.034Z,86.90
2019-03-15T07:13:22.377Z,87.10
2019-03-15T07:15:50.323Z,86.00
2019-03-15T07:18:18.956Z,85.30
2019-03-15T07:20:47.223Z,85.40
2019-03-15T07:23:16.100Z,86.50
2019-03-15T07:25:44.907Z,86.40
2019-03-15T07:28:13.841Z,86.30
2019-03-15T07:30:42.453Z,86.10
2019-03-15T07:33:11.237Z,87.00
2019-03-15T07:35:40.220Z,87.90
2019-03-15T07:38:09.079Z,88.50
2019-03-15T07:40:37.842Z,87.80
2019-03-15T07:43:06.670Z,89.30
2019-03-15T07:45:35.571Z,89.40
2019-03-15T07:48:06.886Z,88.30
2019-03-15T07:50:35.466Z,88.40
2019-03-15T07:53:04.357Z,88.70
2019-03-15T07:55:33.038Z,88.30
2019-03-15T07:58:01.871Z,87.10
2019-03-15T08:00:30.778Z,87.60
2019-03-15T08:03:00.811Z,88.00
2019-03-15T08:05:29.490Z,88.40
2019-03-15T08:07:58.067Z,87.80
2019-03-15T08:10:26.884Z,88.60
2019-03-15T08:12:55.960Z,89.20
2019-03-15T08:15:24.951Z,88.60
2019-03-15T08:17:53.494Z,87.20
2019-03-15T08:20:22.124Z,87.40
2019-03-15T08:22:50.791Z,87.30
2019-03-15T08:25:19.553Z,86.70
2019-03-15T08:27:49.037Z,86.20
2019-03-15T08:30:18.917Z,85.40
2019-03-15T08:32:47.510Z,85.70
2019-03-15T08:35:16.189Z,87.70
2019-03-15T08:37:44.851Z,87.90
2019-03-15T08:40:14.508Z,89.00
2019-03-15T08:42:43.328Z,90.00
2019-03-15T08:45:18.188Z,88.30
2019-03-15T08:47:48.014Z,88.50
2019-03-15T08:50:18.181Z,88.90
2019-03-15T08:52:46.992Z,88.00
2019-03-15T08:55:15.787Z,87.90
2019-03-15T08:57:44.897Z,87.50
2019-03-15T09:00:15.954Z,86.80
2019-03-15T09:02:44.811Z,86.50
2019-03-15T09:05:14.599Z,86.30
2019-03-15T09:07:43.568Z,85.20
2019-03-15T09:10:23.371Z,85.10
2019-03-15T09:12:47.423Z,84.50
2019-03-15T09:15:16.089Z,81.40
2019-03-15T09:17:44.755Z,79.70
2019-03-15T09:20:14.668Z,79.70
2019-03-15T09:22:43.394Z,79.20
2019-03-15T09:25:20.489Z,77.30
2019-03-15T09:27:48.447Z,77.70
2019-03-15T09:30:23.600Z,77.50
2019-03-15T09:32:49.515Z,75.40
2019-03-15T09:35:18.538Z,74.80
2019-03-15T09:37:47.911Z,74.80
2019-03-15T09:40:16.918Z,72.70
2019-03-15T09:42:45.890Z,72.70
2019-03-15T09:45:16.436Z,72.60
2019-03-15T09:47:45.327Z,71.50
2019-03-15T09:50:22.874Z,70.20
2019-03-15T09:52:45.690Z,69.50
2019-03-15T09:55:14.990Z,68.30
2019-03-15T09:57:43.582Z,67.10
2019-03-15T10:00:16.973Z,65.90
2019-03-15T10:02:45.928Z,64.60
2019-03-15T10:05:14.952Z,64.40
2019-03-15T10:07:44.145Z,63.80
2019-03-15T10:10:19.299Z,63.90
2019-03-15T10:12:48.081Z,61.50
2019-03-15T10:15:17.510Z,61.90
2019-03-15T10:17:46.328Z,60.40
2019-03-15T10:20:15.397Z,59.30
2019-03-15T10:22:44.315Z,57.10
2019-03-15T10:25:14.355Z,55.20
2019-03-15T10:27:43.064Z,52.70
2019-03-15T10:30:16.656Z,50.90
2019-03-15T10:32:45.491Z,51.10
2019-03-15T10:35:14.373Z,51.90
2019-03-15T10:37:43.164Z,52.30
2019-03-15T10:40:19.762Z,52.80
2019-03-15T10:42:55.944Z,53.80
2019-03-15T10:45:25.455Z,53.40
2019-03-15T10:47:54.113Z,55.00
2019-03-15T10:50:23.025Z,55.80
2019-03-15T10:52:53.797Z,55.00
2019-03-15T10:55:22.287Z,54.10
2019-03-15T10:57:51.320Z,53.00
2019-03-15T11:00:20.914Z,52.30
2019-03-15T11:02:51.980Z,51.80
2019-03-15T11:05:20.654Z,51.30
2019-03-15T11:07:49.725Z,50.70
2019-03-15T11:10:18.543Z,50.30
2019-03-15T11:12:47.298Z,50.70
2019-03-15T11:15:16.727Z,51.60
2019-03-15T11:17:45.582Z,52.30
2019-03-15T11:20:14.332Z,53.30
2019-03-15T11:22:43.143Z,53.60
2019-03-15T11:25:12.530Z,53.10
2019-03-15T11:27:41.421Z,53.50
2019-03-15T11:30:14.679Z,53.30
2019-03-15T11:32:43.632Z,53.20
2019-03-15T11:35:12.733Z,52.80
2019-03-15T11:37:41.638Z,52.50
2019-03-15T11:40:19.151Z,53.30
2019-03-15T11:42:49.291Z,53.70
2019-03-15T11:45:18.092Z,54.20
2019-03-15T11:48:02.635Z,54.70
2019-03-15T11:50:21.603Z,55.50
2019-03-15T11:52:50.681Z,56.00
2019-03-15T11:55:19.529Z,55.90
2019-03-15T11:57:48.586Z,55.30
2019-03-15T12:00:18.254Z,54.70
2019-03-15T12:02:47.462Z,54.40
2019-03-15T12:05:16.451Z,53.50
2019-03-15T12:07:45.554Z,53.50
2019-03-15T12:10:15.257Z,53.80
2019-03-15T12:12:43.981Z,53.70
2019-03-15T12:15:14.188Z,54.50
2019-03-15T12:17:43.134Z,55.00
2019-03-15T12:20:12.814Z,55.70
2019-03-15T12:22:41.467Z,56.20
2019-03-15T12:25:13.038Z,57.20
2019-03-15T12:27:41.834Z,57.70
2019-03-15T12:30:16.599Z,58.90
2019-03-15T12:32:45.702Z,59.70
2019-03-15T12:35:15.155Z,59.50
2019-03-15T12:37:44.094Z,59.10
2019-03-15T12:40:13.897Z,58.70
2019-03-15T12:42:43.024Z,57.90
2019-03-15T12:45:12.657Z,57.90
2019-03-15T12:47:41.438Z,56.80
2019-03-15T12:50:16.448Z,56.30
2019-03-15T12:52:48.948Z,56.80
2019-03-15T12:55:16.053Z,56.80
2019-03-15T12:57:45.086Z,57.50
2019-03-15T13:00:16.166Z,57.20
2019-03-15T13:02:45.210Z,57.80
2019-03-15T13:05:14.278Z,58.40
2019-03-15T13:07:43.323Z,58.00
2019-03-15T13:10:22.562Z,58.40
2019-03-15T13:12:51.765Z,57.60
2019-03-15T13:15:20.641Z,56.90
2019-03-15T13:17:49.732Z,56.90
2019-03-15T13:20:18.730Z,56.50
2019-03-15T13:22:47.424Z,55.80
2019-03-15T13:25:16.252Z,55.80
2019-03-15T13:27:44.948Z,55.50
2019-03-15T13:30:14.832Z,55.10
2019-03-15T13:32:43.827Z,55.60
2019-03-15T13:35:13.858Z,54.90
2019-03-15T13:37:43.387Z,55.30
2019-03-15T13:40:18.048Z,56.10
2019-03-15T13:42:46.710Z,55.80
2019-03-15T13:45:16.654Z,55.70
2019-03-15T13:47:45.721Z,55.40
2019-03-15T13:50:21.509Z,54.80
2019-03-15T13:52:50.581Z,55.10
2019-03-15T13:55:21.084Z,55.40
2019-03-15T13:57:50.091Z,54.90
2019-03-15T14:00:19.790Z,54.50
2019-03-15T14:02:49.287Z,54.20
2019-03-15T14:05:18.048Z,54.00
2019-03-15T14:07:47.084Z,54.00
2019-03-15T14:10:17.204Z,54.20
2019-03-15T14:12:46.367Z,54.30
2019-03-15T14:15:17.196Z,54.80
2019-03-15T14:17:46.199Z,55.30
2019-03-15T14:20:14.958Z,56.00
2019-03-15T14:22:43.852Z,56.70
2019-03-15T14:25:15.375Z,56.70
2019-03-15T14:27:44.040Z,57.30
2019-03-15T14:30:14.021Z,57.80
2019-03-15T14:32:43.043Z,57.60
2019-03-15T14:35:11.807Z,57.40
2019-03-15T14:37:41.023Z,57.80
2019-03-15T14:40:11.158Z,58.30
2019-03-15T14:42:39.935Z,58.60
2019-03-15T14:45:15.991Z,58.70
2019-03-15T14:47:44.941Z,58.80
2019-03-15T14:50:15.940Z,59.40
2019-03-15T14:52:44.922Z,59.40
2019-03-15T14:55:15.806Z,59.80
2019-03-15T14:57:52.230Z,58.80
2019-03-15T15:00:16.080Z,58.30
2019-03-15T15:02:45.180Z,58.20
2019-03-15T15:05:14.276Z,57.40
2019-03-15T15:07:44.978Z,57.30
2019-03-15T15:10:15.119Z,57.40
2019-03-15T15:12:44.203Z,57.40
2019-03-15T15:15:20.682Z,57.40
2019-03-15T15:17:49.682Z,58.00
2019-03-15T15:20:19.185Z,58.00
2019-03-15T15:22:48.100Z,58.00
2019-03-15T15:25:20.051Z,58.40
2019-03-15T15:27:48.924Z,57.80
2019-03-15T15:30:18.410Z,58.40
2019-03-15T15:32:47.167Z,58.20
2019-03-15T15:35:16.560Z,58.50
2019-03-15T15:37:45.414Z,58.40
2019-03-15T15:40:19.045Z,59.10
2019-03-15T15:42:47.943Z,58.60
2019-03-15T15:45:17.011Z,59.10
2019-03-15T15:47:45.887Z,59.50
2019-03-15T15:50:15.561Z,59.90
2019-03-15T15:52:44.736Z,59.90
2019-03-15T15:55:14.710Z,60.20
2019-03-15T15:57:43.801Z,60.60
2019-03-15T16:00:15.102Z,61.20
2019-03-15T16:02:43.968Z,61.70
2019-03-15T16:05:13.050Z,61.80
2019-03-15T16:07:41.993Z,62.30
2019-03-15T16:10:17.756Z,63.40
2019-03-15T16:12:46.208Z,64.80
2019-03-15T16:15:19.038Z,65.40
2019-03-15T16:17:47.696Z,66.30
2019-03-15T16:20:16.194Z,66.50
2019-03-15T16:22:46.332Z,67.20
2019-03-15T16:25:15.831Z,67.60
2019-03-15T16:27:47.077Z,68.30
2019-03-15T16:30:19.098Z,68.90
2019-03-15T16:32:47.696Z,69.70
2019-03-15T16:35:16.874Z,69.10
2019-03-15T16:37:47.129Z,70.20
2019-03-15T16:40:17.290Z,71.70
2019-03-15T16:42:46.026Z,72.10
2019-03-15T16:45:27.435Z,73.00
2019-03-15T16:47:58.223Z,72.80
2019-03-15T16:50:26.860Z,74.20
2019-03-15T16:52:56.350Z,75.30
2019-03-15T16:55:25.239Z,74.50
2019-03-15T16:57:54.023Z,75.10
2019-03-15T17:00:22.975Z,74.20
2019-03-15T17:02:52.091Z,74.70
2019-03-15T17:05:20.763Z,75.30
2019-03-15T17:07:49.749Z,75.30
2019-03-15T17:10:21.527Z,75.60
2019-03-15T17:12:50.365Z,76.40
2019-03-15T17:15:23.760Z,77.80
2019-03-15T17:17:52.451Z,77.80
2019-03-15T17:20:21.228Z,77.80
2019-03-15T17:22:49.970Z,78.20
2019-03-15T17:25:18.797Z,78.90
2019-03-15T17:27:47.325Z,80.30
2019-03-15T17:30:18.150Z,80.80
2019-03-15T17:32:46.828Z,81.50
2019-03-15T17:35:17.111Z,81.70
2019-03-15T17:37:45.147Z,83.20
2019-03-15T17:40:14.379Z,83.40
2019-03-15T17:42:42.221Z,84.50
2019-03-15T17:45:10.646Z,85.30
2019-03-15T17:47:38.766Z,86.30
2019-03-15T17:50:08.484Z,86.80
2019-03-15T17:52:36.607Z,86.90
2019-03-15T17:55:05.380Z,86.70
2019-03-15T17:57:33.191Z,86.40
2019-03-15T18:00:27.712Z,86.40
2019-03-15T18:02:55.811Z,86.90
2019-03-15T18:05:23.639Z,86.80
2019-03-15T18:07:52.668Z,87.30
2019-03-15T18:10:20.487Z,87.60
2019-03-15T18:12:48.577Z,87.70
2019-03-15T18:15:17.997Z,88.10
2019-03-15T18:17:45.885Z,88.20
2019-03-15T18:20:13.654Z,88.50
2019-03-15T18:22:41.507Z,88.60
2019-03-15T18:25:10.332Z,88.60
2019-03-15T18:27:38.496Z,89.30
2019-03-15T18:30:10.936Z,89.20
2019-03-15T18:32:39.295Z,89.40
2019-03-15T18:35:08.095Z,89.60
2019-03-15T18:37:36.338Z,89.70
2019-03-15T18:40:06.270Z,89.90
2019-03-15T18:42:34.354Z,89.90
2019-03-15T18:45:02.564Z,89.90
2019-03-15T18:47:30.726Z,89.60
2019-03-15T18:49:58.775Z,89.60
2019-03-15T18:52:26.763Z,89.50
2019-03-15T18:54:54.761Z,89.50
2019-03-15T18:57:22.912Z,89.60
2019-03-15T18:59:50.935Z,89.50
2019-03-15T19:02:18.964Z,90.10
2019-03-15T19:04:47.200Z,89.90
2019-03-15T19:07:15.446Z,89.70
2019-03-15T19:09:43.640Z,89.70
2019-03-15T19:12:12.174Z,89.70
2019-03-15T19:14:40.466Z,90.00
2019-03-15T19:17:08.407Z,90.00
2019-03-15T19:19:36.957Z,90.00
2019-03-15T19:22:05.374Z,90.00
2019-03-15T19:24:33.871Z,90.00
2019-03-15T19:27:02.144Z,90.10
2019-03-15T19:29:30.122Z,90.10
2019-03-15T19:31:58.561Z,90.30
2019-03-15T19:34:26.652Z,90.60
2019-03-15T19:36:54.889Z,90.80
2019-03-15T19:39:22.995Z,90.90
2019-03-15T19:41:52.137Z,91.30
2019-03-15T19:44:20.160Z,91.40
2019-03-15T19:46:48.308Z,91.50
2019-03-15T19:49:16.403Z,91.60
2019-03-15T19:51:44.564Z,91.70
2019-03-15T19:54:12.982Z,91.80
2019-03-15T19:56:43.785Z,91.90
2019-03-15T19:59:11.971Z,92.10
2019-03-15T20:01:42.651Z,92.10
2019-03-15T20:04:12.386Z,92.10
2019-03-15T20:06:49.770Z,91.60
2019-03-15T20:09:17.707Z,91.40
2019-03-15T20:11:46.565Z,91.30
2019-03-15T20:14:15.240Z,90.90
2019-03-15T20:16:43.862Z,90.80
2019-03-15T20:19:12.527Z,90.90
2019-03-15T20:21:41.444Z,90.40
2019-03-15T20:24:10.387Z,90.20
2019-03-15T20:26:39.006Z,89.20
2019-03-15T20:29:08.062Z,88.40
2019-03-15T20:31:37.106Z,87.50
2019-03-15T20:34:07.104Z,85.70
2019-03-15T20:36:35.745Z,84.40
2019-03-15T20:39:05.981Z,83.60
2019-03-15T20:41:34.523Z,83.40
2019-03-15T20:44:03.210Z,82.90
2019-03-15T20:46:36.037Z,83.20
2019-03-15T20:49:02.104Z,83.70
2019-03-15T20:51:30.594Z,84.80
2019-03-15T20:53:59.143Z,84.50
2019-03-15T20:56:27.704Z,84.70
2019-03-15T20:58:56.305Z,85.00
2019-03-15T21:01:24.994Z,84.70
2019-03-15T21:03:56.337Z,84.30
2019-03-15T21:06:23.839Z,84.40
2019-03-15T21:08:54.628Z,84.10
2019-03-15T21:11:23.227Z,83.70
2019-03-15T21:13:52.198Z,83.40
2019-03-15T21:16:20.904Z,83.40
2019-03-15T21:18:49.926Z,82.90
2019-03-15T21:21:17.727Z,82.80
2019-03-15T21:23:45.710Z,82.40
2019-03-15T21:26:13.552Z,82.00
2019-03-15T21:28:41.484Z,81.10
2019-03-15T21:31:09.362Z,80.70
2019-03-15T21:33:37.194Z,79.70
2019-03-15T21:36:05.335Z,79.70
2019-03-15T21:38:33.345Z,79.90
2019-03-15T21:41:01.250Z,77.60
2019-03-15T21:43:29.329Z,76.60
2019-03-15T21:45:58.256Z,74.90
2019-03-15T21:48:26.294Z,74.10
2019-03-15T21:50:54.104Z,71.80
2019-03-15T21:53:21.896Z,66.70
2019-03-15T21:55:49.753Z,66.00
2019-03-15T21:58:17.540Z,65.60
2019-03-15T22:00:45.679Z,65.20
2019-03-15T22:03:13.840Z,65.20
2019-03-15T22:05:41.915Z,65.60
2019-03-15T22:08:11.436Z,66.10
2019-03-15T22:10:39.419Z,66.70
2019-03-15T22:13:07.261Z,67.00
2019-03-15T22:15:35.384Z,66.90
2019-03-15T22:18:04.441Z,67.10
2019-03-15T22:20:32.704Z,67.30
2019-03-15T22:23:00.825Z,66.40
2019-03-15T22:25:29.183Z,66.80
2019-03-15T22:27:57.085Z,66.30
2019-03-15T22:30:25.551Z,65.70
2019-03-15T22:32:53.534Z,64.90
2019-03-15T22:35:22.814Z,63.30
2019-03-15T22:37:50.850Z,62.70
2019-03-15T22:40:18.902Z,62.10
2019-03-15T22:42:46.875Z,62.00
2019-03-15T22:45:17.530Z,61.30
2019-03-15T22:47:45.914Z,61.70
2019-03-15T22:50:14.087Z,61.40
2019-03-15T22:52:42.506Z,61.50
2019-03-15T22:55:13.819Z,61.70
2019-03-15T22:57:42.900Z,61.70
2019-03-15T23:00:13.271Z,62.30
2019-03-15T23:02:41.387Z,62.00
2019-03-15T23:05:09.579Z,61.30
2019-03-15T23:07:37.439Z,61.00
2019-03-15T23:10:06.362Z,61.20
2019-03-15T23:12:36.655Z,60.00
2019-03-15T23:15:11.452Z,60.00
2019-03-15T23:17:39.422Z,60.30
2019-03-15T23:20:09.919Z,60.10
2019-03-15T23:22:38.393Z,60.00
2019-03-15T23:25:06.553Z,59.60
2019-03-15T23:27:34.465Z,59.10
2019-03-15T23:30:02.585Z,59.20
2019-03-15T23:32:30.677Z,59.10
2019-03-15T23:34:58.613Z,58.60
2019-03-15T23:37:26.708Z,58.20
2019-03-15T23:39:54.671Z,58.50
2019-03-15T23:42:22.609Z,58.10
2019-03-15T23:44:53.477Z,58.40
2019-03-15T23:47:24.515Z,58.70
2019-03-15T23:49:52.745Z,59.10
2019-03-15T23:52:22.724Z,59.60
2019-03-15T23:55:00.445Z,60.10
2019-03-15T23:57:28.602Z,60.80
2019-03-15T23:59:57.056Z,61.40
